sensor_id;sensor_type;location;lat;lon;timestamp;temperature;humidity
26821;DHT22;37186;51.394;5.454;2023-11-19T00:01:25;13.80;91.60
26821;DHT22;37186;51.394;5.454;2023-11-19T00:04:25;13.80;91.50
26821;DHT22;37186;51.394;5.454;2023-11-19T00:07:26;13.80;91.40
26821;DHT22;37186;51.394;5.454;2023-11-19T00:10:26;13.80;91.40
26821;DHT22;37186;51.394;5.454;2023-11-19T00:13:27;13.90;91.40
26821;DHT22;37186;51.394;5.454;2023-11-19T00:16:27;13.90;91.50
26821;DHT22;37186;51.394;5.454;2023-11-19T00:19:28;13.90;91.40
26821;DHT22;37186;51.394;5.454;2023-11-19T00:22:29;13.90;91.40
26821;DHT22;37186;51.394;5.454;2023-11-19T00:25:30;13.90;91.50
26821;DHT22;37186;51.394;5.454;2023-11-19T00:28:30;14.00;91.50
26821;DHT22;37186;51.394;5.454;2023-11-19T00:31:31;13.90;91.40
26821;DHT22;37186;51.394;5.454;2023-11-19T00:34:32;14.00;91.40
26821;DHT22;37186;51.394;5.454;2023-11-19T00:37:32;14.00;91.40
26821;DHT22;37186;51.394;5.454;2023-11-19T00:40:33;14.00;91.40
26821;DHT22;37186;51.394;5.454;2023-11-19T00:43:33;14.00;91.40
26821;DHT22;37186;51.394;5.454;2023-11-19T00:46:34;14.00;91.40
26821;DHT22;37186;51.394;5.454;2023-11-19T00:49:35;14.00;91.50
26821;DHT22;37186;51.394;5.454;2023-11-19T00:52:35;14.00;91.50
26821;DHT22;37186;51.394;5.454;2023-11-19T00:55:37;14.10;91.50
26821;DHT22;37186;51.394;5.454;2023-11-19T00:58:38;14.10;91.50
26821;DHT22;37186;51.394;5.454;2023-11-19T01:01:38;14.10;91.50
26821;DHT22;37186;51.394;5.454;2023-11-19T01:04:39;14.10;91.50
26821;DHT22;37186;51.394;5.454;2023-11-19T01:07:40;14.10;91.50
26821;DHT22;37186;51.394;5.454;2023-11-19T01:10:40;14.10;91.50
26821;DHT22;37186;51.394;5.454;2023-11-19T01:13:41;14.10;91.50
26821;DHT22;37186;51.394;5.454;2023-11-19T01:16:41;14.10;91.60
26821;DHT22;37186;51.394;5.454;2023-11-19T01:19:43;14.10;91.50
26821;DHT22;37186;51.394;5.454;2023-11-19T01:22:43;14.10;91.50
26821;DHT22;37186;51.394;5.454;2023-11-19T01:25:45;14.10;91.50
26821;DHT22;37186;51.394;5.454;2023-11-19T01:28:45;14.20;91.50
26821;DHT22;37186;51.394;5.454;2023-11-19T01:31:47;14.20;91.60
26821;DHT22;37186;51.394;5.454;2023-11-19T01:34:47;14.20;91.50
26821;DHT22;37186;51.394;5.454;2023-11-19T01:37:48;14.20;91.50
26821;DHT22;37186;51.394;5.454;2023-11-19T01:40:48;14.20;91.50
26821;DHT22;37186;51.394;5.454;2023-11-19T01:43:49;14.20;91.50
26821;DHT22;37186;51.394;5.454;2023-11-19T01:46:49;14.20;91.50
26821;DHT22;37186;51.394;5.454;2023-11-19T01:49:51;14.20;91.50
26821;DHT22;37186;51.394;5.454;2023-11-19T01:52:54;14.20;91.50
26821;DHT22;37186;51.394;5.454;2023-11-19T01:55:58;14.20;91.60
26821;DHT22;37186;51.394;5.454;2023-11-19T01:58:59;14.20;91.60
26821;DHT22;37186;51.394;5.454;2023-11-19T02:01:59;14.20;91.60
26821;DHT22;37186;51.394;5.454;2023-11-19T02:05:00;14.30;91.50
26821;DHT22;37186;51.394;5.454;2023-11-19T02:08:01;14.30;91.60
26821;DHT22;37186;51.394;5.454;2023-11-19T02:11:03;14.30;91.60
26821;DHT22;37186;51.394;5.454;2023-11-19T02:14:04;14.30;91.50
26821;DHT22;37186;51.394;5.454;2023-11-19T02:17:05;14.30;91.50
26821;DHT22;37186;51.394;5.454;2023-11-19T02:20:06;14.30;91.50
26821;DHT22;37186;51.394;5.454;2023-11-19T02:23:09;14.30;91.50
26821;DHT22;37186;51.394;5.454;2023-11-19T02:26:17;14.20;91.50
26821;DHT22;37186;51.394;5.454;2023-11-19T02:29:18;14.20;91.50
26821;DHT22;37186;51.394;5.454;2023-11-19T02:32:19;14.20;91.50
26821;DHT22;37186;51.394;5.454;2023-11-19T02:35:20;14.20;91.50
26821;DHT22;37186;51.394;5.454;2023-11-19T02:38:22;14.20;91.50
26821;DHT22;37186;51.394;5.454;2023-11-19T02:41:22;14.20;91.50
26821;DHT22;37186;51.394;5.454;2023-11-19T02:44:23;14.20;91.40
26821;DHT22;37186;51.394;5.454;2023-11-19T02:47:23;14.20;91.50
26821;DHT22;37186;51.394;5.454;2023-11-19T02:50:25;14.10;91.40
26821;DHT22;37186;51.394;5.454;2023-11-19T02:53:25;14.10;91.50
26821;DHT22;37186;51.394;5.454;2023-11-19T02:56:29;14.10;91.50
26821;DHT22;37186;51.394;5.454;2023-11-19T02:59:38;14.10;91.50
26821;DHT22;37186;51.394;5.454;2023-11-19T03:02:40;14.10;91.50
26821;DHT22;37186;51.394;5.454;2023-11-19T03:05:46;14.00;91.40
26821;DHT22;37186;51.394;5.454;2023-11-19T03:08:47;14.00;91.40
26821;DHT22;37186;51.394;5.454;2023-11-19T03:11:48;14.00;91.40
26821;DHT22;37186;51.394;5.454;2023-11-19T03:14:50;14.00;91.40
26821;DHT22;37186;51.394;5.454;2023-11-19T03:17:51;14.00;91.40
26821;DHT22;37186;51.394;5.454;2023-11-19T03:20:52;14.00;91.40
26821;DHT22;37186;51.394;5.454;2023-11-19T03:23:52;13.90;91.40
26821;DHT22;37186;51.394;5.454;2023-11-19T03:26:53;13.90;91.40
26821;DHT22;37186;51.394;5.454;2023-11-19T03:29:53;13.90;91.40
26821;DHT22;37186;51.394;5.454;2023-11-19T03:32:57;13.90;91.40
26821;DHT22;37186;51.394;5.454;2023-11-19T03:35:58;13.90;91.40
26821;DHT22;37186;51.394;5.454;2023-11-19T03:38:58;13.90;91.40
26821;DHT22;37186;51.394;5.454;2023-11-19T03:41:59;13.90;91.40
26821;DHT22;37186;51.394;5.454;2023-11-19T03:45:00;13.90;91.40
26821;DHT22;37186;51.394;5.454;2023-11-19T03:48:00;13.90;91.40
26821;DHT22;37186;51.394;5.454;2023-11-19T03:51:01;13.80;91.40
26821;DHT22;37186;51.394;5.454;2023-11-19T03:54:02;13.80;91.40
26821;DHT22;37186;51.394;5.454;2023-11-19T03:57:03;13.80;91.40
26821;DHT22;37186;51.394;5.454;2023-11-19T04:00:04;13.80;91.40
26821;DHT22;37186;51.394;5.454;2023-11-19T04:03:14;13.80;91.40
26821;DHT22;37186;51.394;5.454;2023-11-19T04:06:14;13.80;91.40
26821;DHT22;37186;51.394;5.454;2023-11-19T04:09:15;13.80;91.40
26821;DHT22;37186;51.394;5.454;2023-11-19T04:12:15;13.80;91.40
26821;DHT22;37186;51.394;5.454;2023-11-19T04:15:16;13.80;91.40
26821;DHT22;37186;51.394;5.454;2023-11-19T04:18:16;13.80;91.40
26821;DHT22;37186;51.394;5.454;2023-11-19T04:21:17;13.80;91.40
26821;DHT22;37186;51.394;5.454;2023-11-19T04:24:17;13.80;91.50
26821;DHT22;37186;51.394;5.454;2023-11-19T04:27:18;13.80;91.40
26821;DHT22;37186;51.394;5.454;2023-11-19T04:30:18;13.80;91.50
26821;DHT22;37186;51.394;5.454;2023-11-19T04:33:19;13.80;91.50
26821;DHT22;37186;51.394;5.454;2023-11-19T04:36:19;13.70;91.40
26821;DHT22;37186;51.394;5.454;2023-11-19T04:39:20;13.70;91.40
26821;DHT22;37186;51.394;5.454;2023-11-19T04:42:24;13.70;91.40
26821;DHT22;37186;51.394;5.454;2023-11-19T04:45:25;13.70;91.40
26821;DHT22;37186;51.394;5.454;2023-11-19T04:48:25;13.70;91.40
26821;DHT22;37186;51.394;5.454;2023-11-19T04:51:26;13.70;91.40
26821;DHT22;37186;51.394;5.454;2023-11-19T04:54:26;13.70;91.40
26821;DHT22;37186;51.394;5.454;2023-11-19T04:57:27;13.70;91.40
26821;DHT22;37186;51.394;5.454;2023-11-19T05:00:27;13.70;91.40
26821;DHT22;37186;51.394;5.454;2023-11-19T05:03:28;13.70;91.40
26821;DHT22;37186;51.394;5.454;2023-11-19T05:06:29;13.70;91.40
26821;DHT22;37186;51.394;5.454;2023-11-19T05:09:31;13.70;91.40
26821;DHT22;37186;51.394;5.454;2023-11-19T05:12:31;13.70;91.40
26821;DHT22;37186;51.394;5.454;2023-11-19T05:15:32;13.70;91.40
26821;DHT22;37186;51.394;5.454;2023-11-19T05:18:33;13.70;91.40
26821;DHT22;37186;51.394;5.454;2023-11-19T05:21:34;13.60;91.30
26821;DHT22;37186;51.394;5.454;2023-11-19T05:24:34;13.60;91.30
26821;DHT22;37186;51.394;5.454;2023-11-19T05:27:36;13.60;91.30
26821;DHT22;37186;51.394;5.454;2023-11-19T05:30:37;13.60;91.30
26821;DHT22;37186;51.394;5.454;2023-11-19T05:33:38;13.60;91.30
26821;DHT22;37186;51.394;5.454;2023-11-19T05:36:38;13.60;91.30
26821;DHT22;37186;51.394;5.454;2023-11-19T05:39:39;13.60;91.30
26821;DHT22;37186;51.394;5.454;2023-11-19T05:42:41;13.50;91.30
26821;DHT22;37186;51.394;5.454;2023-11-19T05:45:41;13.60;91.30
26821;DHT22;37186;51.394;5.454;2023-11-19T05:48:42;13.60;91.30
26821;DHT22;37186;51.394;5.454;2023-11-19T05:51:43;13.50;91.20
26821;DHT22;37186;51.394;5.454;2023-11-19T05:54:43;13.50;91.20
26821;DHT22;37186;51.394;5.454;2023-11-19T05:57:44;13.50;91.20
26821;DHT22;37186;51.394;5.454;2023-11-19T06:00:47;13.50;91.20
26821;DHT22;37186;51.394;5.454;2023-11-19T06:03:47;13.40;91.20
26821;DHT22;37186;51.394;5.454;2023-11-19T06:06:50;13.50;91.20
26821;DHT22;37186;51.394;5.454;2023-11-19T06:09:50;13.50;91.20
26821;DHT22;37186;51.394;5.454;2023-11-19T06:12:51;13.40;91.20
26821;DHT22;37186;51.394;5.454;2023-11-19T06:15:56;13.40;91.20
26821;DHT22;37186;51.394;5.454;2023-11-19T06:18:56;13.40;91.20
26821;DHT22;37186;51.394;5.454;2023-11-19T06:21:57;13.40;91.20
26821;DHT22;37186;51.394;5.454;2023-11-19T06:24:58;13.40;91.20
26821;DHT22;37186;51.394;5.454;2023-11-19T06:27:58;13.30;91.10
26821;DHT22;37186;51.394;5.454;2023-11-19T06:30:59;13.30;91.20
26821;DHT22;37186;51.394;5.454;2023-11-19T06:33:59;13.30;91.10
26821;DHT22;37186;51.394;5.454;2023-11-19T06:37:00;13.30;91.10
26821;DHT22;37186;51.394;5.454;2023-11-19T06:40:03;13.20;91.10
26821;DHT22;37186;51.394;5.454;2023-11-19T06:43:05;13.20;91.10
26821;DHT22;37186;51.394;5.454;2023-11-19T06:46:16;13.20;91.10
26821;DHT22;37186;51.394;5.454;2023-11-19T06:49:16;13.20;91.10
26821;DHT22;37186;51.394;5.454;2023-11-19T06:52:17;13.20;91.10
26821;DHT22;37186;51.394;5.454;2023-11-19T06:55:17;13.20;91.10
26821;DHT22;37186;51.394;5.454;2023-11-19T06:58:18;13.10;91.10
26821;DHT22;37186;51.394;5.454;2023-11-19T07:01:19;13.10;91.10
26821;DHT22;37186;51.394;5.454;2023-11-19T07:04:19;13.10;91.30
26821;DHT22;37186;51.394;5.454;2023-11-19T07:07:20;13.10;91.10
26821;DHT22;37186;51.394;5.454;2023-11-19T07:10:21;13.10;91.10
26821;DHT22;37186;51.394;5.454;2023-11-19T07:13:21;13.10;91.10
26821;DHT22;37186;51.394;5.454;2023-11-19T07:16:22;13.00;91.00
26821;DHT22;37186;51.394;5.454;2023-11-19T07:19:23;13.10;91.10
26821;DHT22;37186;51.394;5.454;2023-11-19T07:22:23;13.10;91.10
26821;DHT22;37186;51.394;5.454;2023-11-19T07:25:24;13.10;91.10
26821;DHT22;37186;51.394;5.454;2023-11-19T07:28:25;13.00;91.10
26821;DHT22;37186;51.394;5.454;2023-11-19T07:31:25;13.00;90.90
26821;DHT22;37186;51.394;5.454;2023-11-19T07:34:26;13.00;91.00
26821;DHT22;37186;51.394;5.454;2023-11-19T07:37:26;13.00;91.00
26821;DHT22;37186;51.394;5.454;2023-11-19T07:40:27;13.00;91.00
26821;DHT22;37186;51.394;5.454;2023-11-19T07:43:27;13.00;91.00
26821;DHT22;37186;51.394;5.454;2023-11-19T07:46:28;13.00;91.00
26821;DHT22;37186;51.394;5.454;2023-11-19T07:49:28;13.00;91.00
26821;DHT22;37186;51.394;5.454;2023-11-19T07:52:29;13.00;91.00
26821;DHT22;37186;51.394;5.454;2023-11-19T07:55:29;13.00;91.10
26821;DHT22;37186;51.394;5.454;2023-11-19T07:58:30;13.00;91.10
26821;DHT22;37186;51.394;5.454;2023-11-19T08:01:31;13.00;91.00
26821;DHT22;37186;51.394;5.454;2023-11-19T08:04:31;13.00;91.00
26821;DHT22;37186;51.394;5.454;2023-11-19T08:07:32;13.00;91.00
26821;DHT22;37186;51.394;5.454;2023-11-19T08:10:32;13.00;91.00
26821;DHT22;37186;51.394;5.454;2023-11-19T08:13:33;13.00;91.00
26821;DHT22;37186;51.394;5.454;2023-11-19T08:16:34;13.00;91.00
26821;DHT22;37186;51.394;5.454;2023-11-19T08:19:34;13.00;91.00
26821;DHT22;37186;51.394;5.454;2023-11-19T08:22:35;13.00;91.00
26821;DHT22;37186;51.394;5.454;2023-11-19T08:25:35;13.00;91.00
26821;DHT22;37186;51.394;5.454;2023-11-19T08:28:37;13.00;91.00
26821;DHT22;37186;51.394;5.454;2023-11-19T08:31:38;13.00;91.00
26821;DHT22;37186;51.394;5.454;2023-11-19T08:34:38;13.00;91.10
26821;DHT22;37186;51.394;5.454;2023-11-19T08:37:39;13.00;91.10
26821;DHT22;37186;51.394;5.454;2023-11-19T08:40:39;13.00;91.10
26821;DHT22;37186;51.394;5.454;2023-11-19T08:43:40;13.10;91.10
26821;DHT22;37186;51.394;5.454;2023-11-19T08:46:51;13.00;91.10
26821;DHT22;37186;51.394;5.454;2023-11-19T08:49:52;13.10;91.10
26821;DHT22;37186;51.394;5.454;2023-11-19T08:52:52;13.00;91.10
26821;DHT22;37186;51.394;5.454;2023-11-19T08:55:53;13.10;91.10
26821;DHT22;37186;51.394;5.454;2023-11-19T08:58:53;13.10;91.10
26821;DHT22;37186;51.394;5.454;2023-11-19T09:01:54;13.10;91.10
26821;DHT22;37186;51.394;5.454;2023-11-19T09:04:55;13.10;91.10
26821;DHT22;37186;51.394;5.454;2023-11-19T09:07:55;13.10;91.10
26821;DHT22;37186;51.394;5.454;2023-11-19T09:10:56;13.10;91.10
26821;DHT22;37186;51.394;5.454;2023-11-19T09:13:56;13.20;91.10
26821;DHT22;37186;51.394;5.454;2023-11-19T09:16:57;13.10;91.10
26821;DHT22;37186;51.394;5.454;2023-11-19T09:19:58;13.20;91.10
26821;DHT22;37186;51.394;5.454;2023-11-19T09:22:58;13.20;91.20
26821;DHT22;37186;51.394;5.454;2023-11-19T09:25:59;13.20;91.10
26821;DHT22;37186;51.394;5.454;2023-11-19T09:29:00;13.20;91.10
26821;DHT22;37186;51.394;5.454;2023-11-19T09:32:01;13.20;91.20
26821;DHT22;37186;51.394;5.454;2023-11-19T09:35:01;13.30;91.20
26821;DHT22;37186;51.394;5.454;2023-11-19T09:38:02;13.30;91.50
26821;DHT22;37186;51.394;5.454;2023-11-19T09:41:05;13.30;91.20
26821;DHT22;37186;51.394;5.454;2023-11-19T09:44:09;13.40;91.20
26821;DHT22;37186;51.394;5.454;2023-11-19T09:47:14;13.40;91.10
26821;DHT22;37186;51.394;5.454;2023-11-19T09:50:18;13.40;91.20
26821;DHT22;37186;51.394;5.454;2023-11-19T09:53:20;13.40;91.10
26821;DHT22;37186;51.394;5.454;2023-11-19T09:56:22;13.40;91.10
26821;DHT22;37186;51.394;5.454;2023-11-19T09:59:23;13.50;91.10
26821;DHT22;37186;51.394;5.454;2023-11-19T10:02:24;13.50;91.10
26821;DHT22;37186;51.394;5.454;2023-11-19T10:05:25;13.50;91.10
26821;DHT22;37186;51.394;5.454;2023-11-19T10:08:26;13.60;91.10
26821;DHT22;37186;51.394;5.454;2023-11-19T10:11:27;13.60;91.10
26821;DHT22;37186;51.394;5.454;2023-11-19T10:14:28;13.60;91.00
26821;DHT22;37186;51.394;5.454;2023-11-19T10:17:34;13.60;91.10
26821;DHT22;37186;51.394;5.454;2023-11-19T10:20:36;13.60;91.00
26821;DHT22;37186;51.394;5.454;2023-11-19T10:23:54;13.70;91.00
26821;DHT22;37186;51.394;5.454;2023-11-19T10:26:56;13.70;91.00
26821;DHT22;37186;51.394;5.454;2023-11-19T10:29:59;13.70;91.00
26821;DHT22;37186;51.394;5.454;2023-11-19T10:33:11;13.70;91.00
26821;DHT22;37186;51.394;5.454;2023-11-19T10:36:15;13.70;91.00
26821;DHT22;37186;51.394;5.454;2023-11-19T10:39:18;13.70;90.90
26821;DHT22;37186;51.394;5.454;2023-11-19T10:42:18;13.80;90.90
26821;DHT22;37186;51.394;5.454;2023-11-19T10:45:22;13.80;90.90
26821;DHT22;37186;51.394;5.454;2023-11-19T10:48:24;13.80;91.00
26821;DHT22;37186;51.394;5.454;2023-11-19T10:51:25;13.80;90.90
26821;DHT22;37186;51.394;5.454;2023-11-19T10:54:26;13.80;91.00
26821;DHT22;37186;51.394;5.454;2023-11-19T10:57:29;13.80;90.80
26821;DHT22;37186;51.394;5.454;2023-11-19T11:00:37;13.90;90.70
26821;DHT22;37186;51.394;5.454;2023-11-19T11:03:39;13.90;90.80
26821;DHT22;37186;51.394;5.454;2023-11-19T11:06:40;13.90;90.90
26821;DHT22;37186;51.394;5.454;2023-11-19T11:09:41;13.90;90.80
26821;DHT22;37186;51.394;5.454;2023-11-19T11:12:43;13.90;90.80
26821;DHT22;37186;51.394;5.454;2023-11-19T11:15:45;14.00;90.90
26821;DHT22;37186;51.394;5.454;2023-11-19T11:18:47;14.00;90.90
26821;DHT22;37186;51.394;5.454;2023-11-19T11:21:53;14.00;90.90
26821;DHT22;37186;51.394;5.454;2023-11-19T11:25:09;14.00;90.80
26821;DHT22;37186;51.394;5.454;2023-11-19T11:28:18;14.00;90.80
26821;DHT22;37186;51.394;5.454;2023-11-19T11:31:58;14.00;90.80
26821;DHT22;37186;51.394;5.454;2023-11-19T11:38:28;14.10;90.80
26821;DHT22;37186;51.394;5.454;2023-11-19T11:41:28;14.00;90.80
26821;DHT22;37186;51.394;5.454;2023-11-19T11:44:59;14.00;90.70
26821;DHT22;37186;51.394;5.454;2023-11-19T11:48:09;14.00;90.70
26821;DHT22;37186;51.394;5.454;2023-11-19T11:51:11;14.00;90.70
26821;DHT22;37186;51.394;5.454;2023-11-19T11:54:26;14.00;90.70
26821;DHT22;37186;51.394;5.454;2023-11-19T11:57:36;14.00;90.70
26821;DHT22;37186;51.394;5.454;2023-11-19T12:00:39;14.00;90.80
26821;DHT22;37186;51.394;5.454;2023-11-19T12:03:40;14.00;90.80
26821;DHT22;37186;51.394;5.454;2023-11-19T12:06:40;14.00;90.80
26821;DHT22;37186;51.394;5.454;2023-11-19T12:09:42;14.00;90.80
26821;DHT22;37186;51.394;5.454;2023-11-19T12:12:43;14.00;90.80
26821;DHT22;37186;51.394;5.454;2023-11-19T12:19:03;14.00;90.80
26821;DHT22;37186;51.394;5.454;2023-11-19T12:22:11;14.10;90.80
26821;DHT22;37186;51.394;5.454;2023-11-19T12:25:12;14.10;90.80
26821;DHT22;37186;51.394;5.454;2023-11-19T12:28:14;14.10;90.80
26821;DHT22;37186;51.394;5.454;2023-11-19T12:31:16;14.10;90.80
26821;DHT22;37186;51.394;5.454;2023-11-19T12:34:17;14.10;90.80
26821;DHT22;37186;51.394;5.454;2023-11-19T12:37:17;14.10;90.60
26821;DHT22;37186;51.394;5.454;2023-11-19T12:40:24;14.10;90.70
26821;DHT22;37186;51.394;5.454;2023-11-19T12:43:25;14.10;90.70
26821;DHT22;37186;51.394;5.454;2023-11-19T12:46:26;14.10;90.70
26821;DHT22;37186;51.394;5.454;2023-11-19T12:49:27;14.20;90.80
26821;DHT22;37186;51.394;5.454;2023-11-19T12:52:28;14.10;90.80
26821;DHT22;37186;51.394;5.454;2023-11-19T12:55:29;14.10;90.70
26821;DHT22;37186;51.394;5.454;2023-11-19T12:58:34;14.20;90.70
26821;DHT22;37186;51.394;5.454;2023-11-19T13:01:36;14.20;90.80
26821;DHT22;37186;51.394;5.454;2023-11-19T13:04:38;14.20;90.70
26821;DHT22;37186;51.394;5.454;2023-11-19T13:07:39;14.20;90.70
26821;DHT22;37186;51.394;5.454;2023-11-19T13:10:50;14.20;90.70
26821;DHT22;37186;51.394;5.454;2023-11-19T13:14:04;14.20;90.60
26821;DHT22;37186;51.394;5.454;2023-11-19T13:17:04;14.20;90.60
26821;DHT22;37186;51.394;5.454;2023-11-19T13:20:06;14.20;90.70
26821;DHT22;37186;51.394;5.454;2023-11-19T13:23:07;14.20;90.70
26821;DHT22;37186;51.394;5.454;2023-11-19T13:26:08;14.20;90.60
26821;DHT22;37186;51.394;5.454;2023-11-19T13:29:08;14.20;90.70
26821;DHT22;37186;51.394;5.454;2023-11-19T13:32:10;14.20;91.10
26821;DHT22;37186;51.394;5.454;2023-11-19T13:35:11;14.20;90.70
26821;DHT22;37186;51.394;5.454;2023-11-19T13:38:12;14.20;90.70
26821;DHT22;37186;51.394;5.454;2023-11-19T13:41:12;14.20;90.80
26821;DHT22;37186;51.394;5.454;2023-11-19T13:44:14;14.20;90.80
26821;DHT22;37186;51.394;5.454;2023-11-19T13:47:14;14.20;90.70
26821;DHT22;37186;51.394;5.454;2023-11-19T13:50:16;14.20;90.70
26821;DHT22;37186;51.394;5.454;2023-11-19T13:53:17;14.20;90.70
26821;DHT22;37186;51.394;5.454;2023-11-19T13:56:18;14.20;90.70
26821;DHT22;37186;51.394;5.454;2023-11-19T13:59:18;14.20;90.70
26821;DHT22;37186;51.394;5.454;2023-11-19T14:02:19;14.20;90.70
26821;DHT22;37186;51.394;5.454;2023-11-19T14:05:19;14.20;90.70
26821;DHT22;37186;51.394;5.454;2023-11-19T14:08:20;14.20;90.80
26821;DHT22;37186;51.394;5.454;2023-11-19T14:11:21;14.20;90.70
26821;DHT22;37186;51.394;5.454;2023-11-19T14:14:21;14.20;90.70
26821;DHT22;37186;51.394;5.454;2023-11-19T14:17:22;14.20;90.70
26821;DHT22;37186;51.394;5.454;2023-11-19T14:20:22;14.20;90.60
26821;DHT22;37186;51.394;5.454;2023-11-19T14:23:23;14.20;90.70
26821;DHT22;37186;51.394;5.454;2023-11-19T14:26:24;14.20;90.80
26821;DHT22;37186;51.394;5.454;2023-11-19T14:29:25;14.10;90.70
26821;DHT22;37186;51.394;5.454;2023-11-19T14:32:31;14.10;90.80
26821;DHT22;37186;51.394;5.454;2023-11-19T14:35:32;14.10;90.80
26821;DHT22;37186;51.394;5.454;2023-11-19T14:38:34;14.10;90.80
26821;DHT22;37186;51.394;5.454;2023-11-19T14:41:34;14.10;90.70
26821;DHT22;37186;51.394;5.454;2023-11-19T14:44:35;14.10;90.70
26821;DHT22;37186;51.394;5.454;2023-11-19T14:47:35;14.10;90.70
26821;DHT22;37186;51.394;5.454;2023-11-19T14:50:36;14.10;90.70
26821;DHT22;37186;51.394;5.454;2023-11-19T14:53:36;14.00;90.70
26821;DHT22;37186;51.394;5.454;2023-11-19T14:56:37;14.00;90.70
26821;DHT22;37186;51.394;5.454;2023-11-19T14:59:39;14.00;90.70
26821;DHT22;37186;51.394;5.454;2023-11-19T15:02:41;14.00;90.70
26821;DHT22;37186;51.394;5.454;2023-11-19T15:05:41;14.00;90.70
26821;DHT22;37186;51.394;5.454;2023-11-19T15:08:42;14.00;90.70
26821;DHT22;37186;51.394;5.454;2023-11-19T15:11:45;14.00;90.70
26821;DHT22;37186;51.394;5.454;2023-11-19T15:14:46;14.00;90.80
26821;DHT22;37186;51.394;5.454;2023-11-19T15:17:46;14.00;90.80
26821;DHT22;37186;51.394;5.454;2023-11-19T15:20:47;14.00;90.80
26821;DHT22;37186;51.394;5.454;2023-11-19T15:23:48;14.00;90.70
26821;DHT22;37186;51.394;5.454;2023-11-19T15:26:48;14.00;90.70
26821;DHT22;37186;51.394;5.454;2023-11-19T15:29:49;14.00;90.80
26821;DHT22;37186;51.394;5.454;2023-11-19T15:32:49;13.90;90.70
26821;DHT22;37186;51.394;5.454;2023-11-19T15:35:50;13.90;90.70
26821;DHT22;37186;51.394;5.454;2023-11-19T15:38:50;13.90;90.70
26821;DHT22;37186;51.394;5.454;2023-11-19T15:41:51;13.90;90.70
26821;DHT22;37186;51.394;5.454;2023-11-19T15:44:51;13.80;90.70
26821;DHT22;37186;51.394;5.454;2023-11-19T15:47:52;13.90;90.70
26821;DHT22;37186;51.394;5.454;2023-11-19T15:50:52;13.80;90.70
26821;DHT22;37186;51.394;5.454;2023-11-19T15:53:53;13.80;90.70
26821;DHT22;37186;51.394;5.454;2023-11-19T15:56:53;13.80;90.70
26821;DHT22;37186;51.394;5.454;2023-11-19T15:59:54;13.80;90.60
26821;DHT22;37186;51.394;5.454;2023-11-19T16:02:54;13.80;90.70
26821;DHT22;37186;51.394;5.454;2023-11-19T16:05:56;13.80;90.70
26821;DHT22;37186;51.394;5.454;2023-11-19T16:08:57;13.80;90.70
26821;DHT22;37186;51.394;5.454;2023-11-19T16:11:59;13.70;90.70
26821;DHT22;37186;51.394;5.454;2023-11-19T16:14:59;13.80;90.70
26821;DHT22;37186;51.394;5.454;2023-11-19T16:18:00;13.80;90.80
26821;DHT22;37186;51.394;5.454;2023-11-19T16:21:01;13.80;90.70
26821;DHT22;37186;51.394;5.454;2023-11-19T16:24:02;13.70;90.80
26821;DHT22;37186;51.394;5.454;2023-11-19T16:27:03;13.70;90.70
26821;DHT22;37186;51.394;5.454;2023-11-19T16:30:05;13.70;90.70
26821;DHT22;37186;51.394;5.454;2023-11-19T16:33:05;13.70;90.70
26821;DHT22;37186;51.394;5.454;2023-11-19T16:36:07;13.70;90.80
26821;DHT22;37186;51.394;5.454;2023-11-19T16:39:09;13.70;90.80
26821;DHT22;37186;51.394;5.454;2023-11-19T16:42:10;13.70;90.80
26821;DHT22;37186;51.394;5.454;2023-11-19T16:45:11;13.70;90.80
26821;DHT22;37186;51.394;5.454;2023-11-19T16:48:12;13.70;90.80
26821;DHT22;37186;51.394;5.454;2023-11-19T16:51:13;13.70;90.80
26821;DHT22;37186;51.394;5.454;2023-11-19T16:54:14;13.70;90.80
26821;DHT22;37186;51.394;5.454;2023-11-19T16:57:15;13.70;90.70
26821;DHT22;37186;51.394;5.454;2023-11-19T17:00:16;13.60;90.70
26821;DHT22;37186;51.394;5.454;2023-11-19T17:03:18;13.70;90.70
26821;DHT22;37186;51.394;5.454;2023-11-19T17:06:19;13.70;90.80
26821;DHT22;37186;51.394;5.454;2023-11-19T17:09:20;13.60;90.70
26821;DHT22;37186;51.394;5.454;2023-11-19T17:12:20;13.60;90.70
26821;DHT22;37186;51.394;5.454;2023-11-19T17:15:21;13.70;90.80
26821;DHT22;37186;51.394;5.454;2023-11-19T17:18:23;13.60;90.80
26821;DHT22;37186;51.394;5.454;2023-11-19T17:21:23;13.60;90.80
26821;DHT22;37186;51.394;5.454;2023-11-19T17:24:24;13.60;90.80
26821;DHT22;37186;51.394;5.454;2023-11-19T17:27:24;13.60;90.80
26821;DHT22;37186;51.394;5.454;2023-11-19T17:30:27;13.60;90.80
26821;DHT22;37186;51.394;5.454;2023-11-19T17:33:28;13.60;90.80
26821;DHT22;37186;51.394;5.454;2023-11-19T17:36:29;13.60;90.80
26821;DHT22;37186;51.394;5.454;2023-11-19T17:39:31;13.60;90.80
26821;DHT22;37186;51.394;5.454;2023-11-19T17:42:32;13.60;90.80
26821;DHT22;37186;51.394;5.454;2023-11-19T17:45:33;13.60;90.80
26821;DHT22;37186;51.394;5.454;2023-11-19T17:48:36;13.60;90.80
26821;DHT22;37186;51.394;5.454;2023-11-19T17:51:36;13.60;90.80
26821;DHT22;37186;51.394;5.454;2023-11-19T17:54:37;13.60;90.80
26821;DHT22;37186;51.394;5.454;2023-11-19T17:57:42;13.60;90.80
26821;DHT22;37186;51.394;5.454;2023-11-19T18:00:43;13.50;90.80
26821;DHT22;37186;51.394;5.454;2023-11-19T18:03:43;13.60;90.80
26821;DHT22;37186;51.394;5.454;2023-11-19T18:06:44;13.60;90.80
26821;DHT22;37186;51.394;5.454;2023-11-19T18:09:44;13.50;90.80
26821;DHT22;37186;51.394;5.454;2023-11-19T18:12:45;13.50;90.80
26821;DHT22;37186;51.394;5.454;2023-11-19T18:15:46;13.50;90.80
26821;DHT22;37186;51.394;5.454;2023-11-19T18:18:46;13.50;90.80
26821;DHT22;37186;51.394;5.454;2023-11-19T18:21:47;13.50;90.80
26821;DHT22;37186;51.394;5.454;2023-11-19T18:24:47;13.50;90.80
26821;DHT22;37186;51.394;5.454;2023-11-19T18:27:48;13.50;90.80
26821;DHT22;37186;51.394;5.454;2023-11-19T18:30:48;13.50;90.80
26821;DHT22;37186;51.394;5.454;2023-11-19T18:33:49;13.50;90.80
26821;DHT22;37186;51.394;5.454;2023-11-19T18:36:50;13.40;90.90
26821;DHT22;37186;51.394;5.454;2023-11-19T18:39:50;13.40;90.80
26821;DHT22;37186;51.394;5.454;2023-11-19T18:42:51;13.50;90.90
26821;DHT22;37186;51.394;5.454;2023-11-19T18:45:52;13.50;90.90
26821;DHT22;37186;51.394;5.454;2023-11-19T18:48:53;13.40;90.90
26821;DHT22;37186;51.394;5.454;2023-11-19T18:51:53;13.40;90.90
26821;DHT22;37186;51.394;5.454;2023-11-19T18:54:54;13.50;90.90
26821;DHT22;37186;51.394;5.454;2023-11-19T18:57:54;13.40;90.90
26821;DHT22;37186;51.394;5.454;2023-11-19T19:00:55;13.40;90.90
26821;DHT22;37186;51.394;5.454;2023-11-19T19:03:55;13.40;90.90
26821;DHT22;37186;51.394;5.454;2023-11-19T19:06:56;13.40;91.00
26821;DHT22;37186;51.394;5.454;2023-11-19T19:09:57;13.40;90.90
26821;DHT22;37186;51.394;5.454;2023-11-19T19:12:58;13.50;91.00